Time;durP1;ratioP1;P1;durP2;ratioP2;P2;SDS_P1;SDS_P2;PMS_P1;PMS_P2;Temp;Humidity;BMP_temperature;BMP_pressure;BME280_temperature;BME280_humidity;BME280_pressure;Samples;Min_cycle;Max_cycle;Signal;HPM_P1;HPM_P2
2021/11/14 00:00:39;;;;;;;35.30;32.10;;;10.30;99.90;;;;;;5076244;28;20461;-70
2021/11/14 00:03:08;;;;;;;36.00;32.40;;;10.30;99.90;;;;;;5074234;28;20455;-71
2021/11/14 00:05:36;;;;;;;36.20;32.97;;;10.30;99.90;;;;;;5073030;28;20459;-69
2021/11/14 00:08:04;;;;;;;39.50;32.93;;;10.30;99.90;;;;;;5079411;28;20830;-73
2021/11/14 00:10:31;;;;;;;37.27;33.27;;;10.30;99.90;;;;;;5071612;28;21832;-70
2021/11/14 00:12:58;;;;;;;37.07;33.33;;;10.20;99.90;;;;;;5077101;28;20461;-71
2021/11/14 00:15:26;;;;;;;34.23;31.00;;;10.10;99.90;;;;;;5077153;28;21028;-69
2021/11/14 00:17:53;;;;;;;36.13;32.43;;;10.10;99.90;;;;;;5082822;28;20455;-69
2021/11/14 00:20:23;;;;;;;37.80;31.83;;;10.10;99.90;;;;;;5074688;28;21043;-69
2021/11/14 00:22:50;;;;;;;34.93;31.23;;;10.20;99.90;;;;;;5077480;28;20461;-70
2021/11/14 00:25:18;;;;;;;35.53;32.10;;;10.20;99.90;;;;;;5077436;28;20457;-70
2021/11/14 00:27:45;;;;;;;36.07;32.60;;;10.30;99.90;;;;;;5079305;28;20978;-74
2021/11/14 00:30:13;;;;;;;36.70;32.83;;;10.30;99.90;;;;;;5078434;28;20496;-69
2021/11/14 00:32:40;;;;;;;36.10;32.23;;;10.30;99.90;;;;;;5090259;28;20455;-71
2021/11/14 00:35:09;;;;;;;36.07;32.27;;;10.30;99.90;;;;;;5079040;28;20447;-71
2021/11/14 00:37:38;;;;;;;36.30;32.70;;;10.20;99.90;;;;;;5079016;28;20466;-70
2021/11/14 00:40:09;;;;;;;37.60;32.27;;;10.20;99.90;;;;;;5077078;28;20553;-70
2021/11/14 00:42:37;;;;;;;36.83;33.00;;;10.20;99.90;;;;;;5078069;28;21126;-72
2021/11/14 00:45:05;;;;;;;41.07;33.33;;;10.20;99.90;;;;;;5071067;28;20469;-72
2021/11/14 00:47:32;;;;;;;38.30;33.53;;;10.30;99.90;;;;;;5073026;28;20508;-70
2021/11/14 00:49:59;;;;;;;46.27;34.20;;;10.30;99.90;;;;;;5078403;28;20497;-69
2021/11/14 00:52:26;;;;;;;39.20;34.90;;;10.30;99.90;;;;;;5073754;28;20470;-69
2021/11/14 00:54:54;;;;;;;40.43;33.93;;;10.30;99.90;;;;;;5078753;28;20462;-73
2021/11/14 00:57:21;;;;;;;40.37;34.40;;;10.30;99.90;;;;;;5075159;28;20835;-73
2021/11/14 00:59:48;;;;;;;48.47;33.13;;;10.30;99.90;;;;;;5076710;28;20470;-70
2021/11/14 01:02:15;;;;;;;46.20;35.50;;;10.30;99.90;;;;;;5070072;28;20929;-70
2021/11/14 01:04:42;;;;;;;37.50;33.53;;;10.20;99.90;;;;;;5075738;28;20494;-70
2021/11/14 01:07:09;;;;;;;38.13;33.57;;;10.20;99.90;;;;;;5078878;28;20481;-71
2021/11/14 01:09:38;;;;;;;35.47;31.80;;;10.20;99.90;;;;;;5075597;28;20469;-70
2021/11/14 01:12:08;;;;;;;34.83;31.13;;;10.20;99.90;;;;;;5075547;28;21429;-70
2021/11/14 01:14:35;;;;;;;34.70;31.20;;;10.20;99.90;;;;;;5075259;28;20473;-70
2021/11/14 01:17:03;;;;;;;36.10;32.50;;;10.20;99.90;;;;;;5077211;28;20469;-73
2021/11/14 01:19:30;;;;;;;34.83;31.07;;;10.20;99.90;;;;;;5079815;28;20469;-70
2021/11/14 01:21:57;;;;;;;37.90;33.17;;;10.10;99.90;;;;;;5078047;28;20485;-69
2021/11/14 01:24:24;;;;;;;34.27;30.77;;;10.10;99.90;;;;;;5076287;28;20462;-69
2021/11/14 01:26:51;;;;;;;35.97;30.87;;;10.00;99.90;;;;;;5062693;28;20487;-71
2021/11/14 01:29:20;;;;;;;33.20;29.70;;;10.00;99.90;;;;;;5070914;28;20463;-70
2021/11/14 01:31:47;;;;;;;32.53;29.30;;;10.00;99.90;;;;;;5080295;28;20490;-71
2021/11/14 01:34:14;;;;;;;34.03;30.83;;;10.00;99.90;;;;;;5075074;28;20455;-72
2021/11/14 01:36:41;;;;;;;33.30;29.80;;;10.00;99.90;;;;;;5078474;28;20515;-70
2021/11/14 01:39:09;;;;;;;37.00;29.00;;;10.00;99.90;;;;;;5074599;28;20469;-72
2021/11/14 01:41:36;;;;;;;33.70;30.37;;;10.10;99.90;;;;;;5075377;28;20570;-71
2021/11/14 01:44:04;;;;;;;33.10;29.03;;;10.10;99.90;;;;;;5078185;28;20832;-74
2021/11/14 01:46:33;;;;;;;31.87;28.63;;;10.10;99.90;;;;;;5072907;28;20462;-72
2021/11/14 01:49:00;;;;;;;30.93;28.07;;;10.10;99.90;;;;;;5079580;28;20508;-70
2021/11/14 01:51:27;;;;;;;32.23;28.93;;;10.20;99.90;;;;;;5082104;28;20955;-70
2021/11/14 01:53:54;;;;;;;31.93;28.53;;;10.20;99.90;;;;;;5074594;28;20466;-70
2021/11/14 01:56:22;;;;;;;35.20;28.40;;;10.20;99.90;;;;;;5080372;28;20469;-70
2021/11/14 01:58:49;;;;;;;30.83;27.70;;;10.20;99.90;;;;;;5071439;28;20488;-70
2021/11/14 02:01:20;;;;;;;30.13;27.43;;;10.10;99.90;;;;;;5076893;28;20476;-69
2021/11/14 02:03:53;;;;;;;31.07;27.80;;;10.10;99.90;;;;;;5080006;28;20551;-69
2021/11/14 02:06:22;;;;;;;33.83;28.77;;;10.10;99.90;;;;;;5079975;28;20467;-71
2021/11/14 02:08:49;;;;;;;31.83;27.40;;;10.20;99.90;;;;;;5078693;28;20563;-70
2021/11/14 02:11:17;;;;;;;31.67;28.27;;;10.20;99.90;;;;;;5078561;28;20462;-70
2021/11/14 02:13:46;;;;;;;30.50;27.40;;;10.20;99.90;;;;;;5079889;28;20451;-69
2021/11/14 02:16:13;;;;;;;30.97;27.90;;;10.10;99.90;;;;;;5083323;28;20461;-70
2021/11/14 02:18:40;;;;;;;29.90;26.90;;;10.10;99.90;;;;;;5081294;28;20461;-71
2021/11/14 02:21:10;;;;;;;29.80;27.00;;;10.10;99.90;;;;;;5072862;28;20457;-70
2021/11/14 02:23:37;;;;;;;29.30;26.30;;;10.20;99.90;;;;;;5074928;28;20852;-71
2021/11/14 02:26:04;;;;;;;30.43;27.07;;;10.10;99.90;;;;;;5076459;28;20464;-68
2021/11/14 02:28:32;;;;;;;28.97;26.07;;;10.00;99.90;;;;;;5072652;28;20509;-70
2021/11/14 02:31:00;;;;;;;28.43;25.57;;;10.00;99.90;;;;;;5076601;28;20602;-71
2021/11/14 02:33:28;;;;;;;28.73;25.83;;;10.00;99.90;;;;;;5081354;28;20461;-69
2021/11/14 02:36:00;;;;;;;28.67;25.67;;;10.00;99.90;;;;;;5078198;28;20473;-70
2021/11/14 02:38:29;;;;;;;26.80;24.70;;;10.00;99.90;;;;;;5078741;28;20470;-74
2021/11/14 02:40:57;;;;;;;27.80;25.30;;;10.00;99.90;;;;;;5076134;28;20544;-71
2021/11/14 02:43:24;;;;;;;26.87;24.57;;;10.00;99.90;;;;;;5076225;28;20477;-72
2021/11/14 02:45:51;;;;;;;25.60;23.20;;;10.00;99.90;;;;;;5080664;28;20468;-68
2021/11/14 02:48:20;;;;;;;28.20;25.80;;;9.90;99.90;;;;;;5078530;28;20491;-70
2021/11/14 02:50:51;;;;;;;26.87;24.67;;;9.90;99.90;;;;;;5079735;28;20471;-71
2021/11/14 02:53:18;;;;;;;27.20;24.87;;;9.90;99.90;;;;;;5078419;28;20461;-69
2021/11/14 02:55:47;;;;;;;26.60;24.10;;;9.90;99.90;;;;;;5079806;28;21026;-68
2021/11/14 02:58:15;;;;;;;27.93;25.63;;;9.80;99.90;;;;;;5076731;28;20545;-69
2021/11/14 03:00:46;;;;;;;26.73;24.50;;;9.80;99.90;;;;;;5076934;28;20537;-69
2021/11/14 03:03:12;;;;;;;26.53;24.33;;;9.80;99.90;;;;;;5073781;28;20471;-69
2021/11/14 03:05:40;;;;;;;26.67;24.20;;;9.80;99.90;;;;;;5076136;28;20465;-69
2021/11/14 03:08:07;;;;;;;27.97;25.60;;;9.80;99.90;;;;;;5080523;28;21029;-69
2021/11/14 03:10:35;;;;;;;27.03;24.63;;;9.80;99.90;;;;;;5082426;28;20495;-70
2021/11/14 03:13:06;;;;;;;28.50;25.57;;;9.90;99.90;;;;;;5073892;28;20466;-71
2021/11/14 03:15:35;;;;;;;27.53;25.00;;;9.90;99.90;;;;;;5075070;28;20466;-68
2021/11/14 03:18:03;;;;;;;27.47;25.20;;;9.90;99.90;;;;;;5079912;28;20462;-69
2021/11/14 03:20:30;;;;;;;27.07;24.97;;;9.90;99.90;;;;;;5078466;28;20466;-69
2021/11/14 03:22:57;;;;;;;29.70;26.10;;;9.90;99.90;;;;;;5073945;28;20494;-71
2021/11/14 03:25:26;;;;;;;27.50;25.10;;;10.00;99.90;;;;;;5078822;28;20540;-69
2021/11/14 03:27:53;;;;;;;26.17;23.63;;;10.00;99.90;;;;;;5074719;28;21004;-70
2021/11/14 03:30:24;;;;;;;28.07;25.43;;;10.10;99.90;;;;;;5070164;28;20495;-69
2021/11/14 03:32:53;;;;;;;28.20;25.57;;;10.10;99.90;;;;;;5073242;28;20842;-69
2021/11/14 03:35:23;;;;;;;27.60;25.10;;;10.20;99.90;;;;;;5075273;28;20466;-72
2021/11/14 03:37:50;;;;;;;27.17;24.87;;;10.10;99.90;;;;;;5080836;28;21245;-70
2021/11/14 03:40:19;;;;;;;28.13;25.70;;;10.10;99.90;;;;;;5086614;28;20468;-68
2021/11/14 03:42:47;;;;;;;29.63;25.73;;;10.00;99.90;;;;;;5075519;28;20484;-72
2021/11/14 03:45:14;;;;;;;27.30;25.17;;;9.90;99.90;;;;;;5077785;28;20467;-69
2021/11/14 03:47:43;;;;;;;28.33;25.73;;;9.90;99.90;;;;;;5081070;28;20490;-71
2021/11/14 03:50:10;;;;;;;28.77;26.17;;;9.80;99.90;;;;;;5083095;28;20474;-70
2021/11/14 03:52:39;;;;;;;28.33;25.73;;;9.70;99.90;;;;;;5082847;28;20458;-72
2021/11/14 03:55:07;;;;;;;28.33;25.83;;;9.70;99.90;;;;;;5077367;28;20459;-69
2021/11/14 03:57:34;;;;;;;28.67;26.13;;;9.70;99.90;;;;;;5074428;28;20466;-70
2021/11/14 04:00:01;;;;;;;29.00;26.30;;;9.70;99.90;;;;;;5079928;28;20462;-71
2021/11/14 04:02:29;;;;;;;31.40;28.20;;;9.70;99.90;;;;;;5074484;28;20466;-71
2021/11/14 04:04:58;;;;;;;30.27;27.17;;;9.70;99.90;;;;;;5075826;28;20464;-72
2021/11/14 04:07:25;;;;;;;32.40;29.23;;;9.70;99.90;;;;;;5082270;28;20461;-69
2021/11/14 04:09:52;;;;;;;32.00;28.63;;;9.80;99.90;;;;;;5081740;28;20497;-71
2021/11/14 04:12:19;;;;;;;35.30;30.00;;;9.80;99.90;;;;;;5073327;28;21104;-71
2021/11/14 04:14:46;;;;;;;32.47;28.67;;;9.80;99.90;;;;;;5078687;28;20473;-71
2021/11/14 04:17:13;;;;;;;47.10;30.70;;;9.80;99.90;;;;;;5077403;28;20514;-69
2021/11/14 04:19:40;;;;;;;45.70;31.70;;;9.80;99.90;;;;;;5080378;28;20553;-71
2021/11/14 04:22:08;;;;;;;38.23;32.77;;;9.70;99.90;;;;;;5078367;28;20499;-70
2021/11/14 04:24:35;;;;;;;38.33;31.80;;;9.70;99.90;;;;;;5082041;28;20491;-69
2021/11/14 04:27:02;;;;;;;42.20;33.40;;;9.70;99.90;;;;;;5077203;28;20476;-69
2021/11/14 04:29:29;;;;;;;40.90;32.13;;;9.80;99.90;;;;;;5076188;28;20489;-71
2021/11/14 04:31:56;;;;;;;40.40;32.90;;;9.70;99.90;;;;;;5074320;28;20477;-70
2021/11/14 04:34:23;;;;;;;37.50;31.33;;;9.70;99.90;;;;;;5073318;28;20470;-73
2021/11/14 04:36:50;;;;;;;42.87;33.43;;;9.70;99.90;;;;;;5074707;28;20480;-69
2021/11/14 04:39:19;;;;;;;42.97;32.93;;;9.70;99.90;;;;;;5076595;28;20502;-71
2021/11/14 04:41:46;;;;;;;47.13;31.63;;;9.70;99.90;;;;;;5074911;28;20457;-73
2021/11/14 04:44:13;;;;;;;48.17;32.57;;;9.70;99.90;;;;;;5073124;28;20462;-69
2021/11/14 04:46:39;;;;;;;48.27;33.70;;;9.70;99.90;;;;;;5079821;28;20468;-70
2021/11/14 04:49:06;;;;;;;49.87;33.87;;;9.70;99.90;;;;;;5078904;28;20490;-69
2021/11/14 04:51:33;;;;;;;49.33;33.70;;;9.70;99.90;;;;;;5075994;28;20474;-71
2021/11/14 04:54:00;;;;;;;48.57;33.17;;;9.70;99.90;;;;;;5083782;28;21370;-70
2021/11/14 04:56:29;;;;;;;47.90;34.73;;;9.80;99.90;;;;;;5085426;28;20464;-69
2021/11/14 04:58:56;;;;;;;46.17;33.00;;;9.80;99.90;;;;;;5073777;28;20466;-72
2021/11/14 05:01:23;;;;;;;47.20;32.70;;;9.80;99.90;;;;;;5071470;28;20972;-70
2021/11/14 05:03:50;;;;;;;51.57;34.37;;;9.80;99.90;;;;;;5078087;28;20461;-73
2021/11/14 05:06:17;;;;;;;52.07;35.00;;;9.70;99.90;;;;;;5071155;28;20864;-70
2021/11/14 05:08:44;;;;;;;48.33;35.10;;;9.70;99.90;;;;;;5072550;28;20570;-71
2021/11/14 05:11:11;;;;;;;48.33;33.97;;;9.80;99.90;;;;;;5076086;28;20469;-71
2021/11/14 05:13:40;;;;;;;51.03;34.00;;;9.80;99.90;;;;;;5078068;28;20821;-69
2021/11/14 05:16:07;;;;;;;50.10;34.53;;;9.80;99.90;;;;;;5077178;28;20466;-69
2021/11/14 05:18:35;;;;;;;49.17;34.40;;;9.80;99.90;;;;;;5082389;28;20456;-69
2021/11/14 05:21:02;;;;;;;55.93;35.83;;;10.00;99.90;;;;;;5076356;28;20474;-71
2021/11/14 05:23:28;;;;;;;55.43;33.93;;;9.90;99.90;;;;;;5077251;28;20455;-70
2021/11/14 05:25:55;;;;;;;54.07;33.73;;;9.80;99.90;;;;;;5075796;28;20486;-70
2021/11/14 05:28:22;;;;;;;51.07;33.60;;;9.80;99.90;;;;;;5081107;28;20481;-73
2021/11/14 05:30:51;;;;;;;50.37;35.70;;;9.70;99.90;;;;;;5073534;28;20489;-69
2021/11/14 05:33:18;;;;;;;51.83;35.40;;;9.80;99.90;;;;;;5081644;28;20458;-71
2021/11/14 05:35:45;;;;;;;47.60;34.20;;;9.80;99.90;;;;;;5083318;28;20556;-73
2021/11/14 05:38:13;;;;;;;56.07;36.30;;;9.90;99.90;;;;;;5077373;28;20988;-69
2021/11/14 05:40:42;;;;;;;58.77;35.30;;;9.80;99.90;;;;;;5081149;28;20463;-69
2021/11/14 05:43:09;;;;;;;49.10;34.43;;;9.80;99.90;;;;;;5084280;28;20575;-69
2021/11/14 05:45:36;;;;;;;53.47;34.00;;;9.70;99.90;;;;;;5079679;28;20470;-71
2021/11/14 05:48:05;;;;;;;52.47;34.00;;;9.80;99.90;;;;;;5082488;28;20473;-70
2021/11/14 05:50:33;;;;;;;52.37;31.90;;;9.70;99.90;;;;;;5084660;28;20465;-71
2021/11/14 05:53:00;;;;;;;59.50;34.37;;;9.70;99.90;;;;;;5077551;28;20466;-71
2021/11/14 05:55:27;;;;;;;51.40;34.40;;;9.70;99.90;;;;;;5083376;28;21004;-68
2021/11/14 05:57:56;;;;;;;55.93;35.00;;;9.70;99.90;;;;;;5081616;28;20464;-73
2021/11/14 06:00:28;;;;;;;54.40;32.83;;;9.70;99.90;;;;;;5082694;28;20470;-69
2021/11/14 06:03:00;;;;;;;49.33;33.20;;;9.70;99.90;;;;;;5075716;28;20480;-69
2021/11/14 06:05:33;;;;;;;52.33;34.43;;;9.70;99.90;;;;;;5085675;28;20836;-69
2021/11/14 06:08:00;;;;;;;49.83;33.13;;;9.60;99.90;;;;;;5079948;28;21091;-72
2021/11/14 06:10:27;;;;;;;46.87;32.57;;;9.60;99.90;;;;;;5086089;28;20488;-69
2021/11/14 06:12:54;;;;;;;50.40;32.00;;;9.50;99.90;;;;;;5082724;28;20466;-72
2021/11/14 06:15:22;;;;;;;55.20;33.03;;;9.50;99.90;;;;;;5083526;28;20474;-69
2021/11/14 06:17:49;;;;;;;53.83;32.40;;;9.60;99.90;;;;;;5073861;28;20564;-70
2021/11/14 06:20:17;;;;;;;51.07;32.50;;;9.50;99.90;;;;;;5081791;28;20838;-69
2021/11/14 06:22:46;;;;;;;51.83;34.57;;;9.60;99.90;;;;;;5080821;28;20451;-69
2021/11/14 06:25:13;;;;;;;46.07;32.20;;;9.60;99.90;;;;;;5084716;28;20488;-69
2021/11/14 06:27:40;;;;;;;50.90;34.07;;;9.60;99.90;;;;;;5074061;28;20479;-69
2021/11/14 06:30:10;;;;;;;51.00;34.07;;;9.60;99.90;;;;;;5079958;28;20580;-69
2021/11/14 06:32:38;;;;;;;62.30;35.70;;;9.50;99.90;;;;;;5087069;28;20466;-69
2021/11/14 06:35:06;;;;;;;49.87;33.23;;;9.50;99.90;;;;;;5083629;28;20484;-71
2021/11/14 06:37:33;;;;;;;55.77;33.80;;;9.50;99.90;;;;;;5083798;28;20467;-72
2021/11/14 06:40:01;;;;;;;51.20;33.70;;;9.30;99.90;;;;;;5081547;28;20465;-69
2021/11/14 06:42:28;;;;;;;57.67;34.70;;;9.20;99.90;;;;;;5082279;28;20454;-69
2021/11/14 06:44:55;;;;;;;55.27;34.93;;;9.30;99.90;;;;;;5079845;28;20466;-70
2021/11/14 06:47:22;;;;;;;47.03;32.43;;;9.30;99.90;;;;;;5084055;28;20466;-70
2021/11/14 06:49:52;;;;;;;43.57;31.80;;;9.40;99.90;;;;;;5078271;28;20485;-69
2021/11/14 06:52:19;;;;;;;51.60;33.60;;;9.30;99.90;;;;;;5083824;28;20921;-70
2021/11/14 06:54:48;;;;;;;47.57;33.57;;;9.40;99.90;;;;;;5081979;28;20473;-70
2021/11/14 06:57:18;;;;;;;49.70;33.90;;;9.40;99.90;;;;;;5082417;28;20466;-71
2021/11/14 06:59:44;;;;;;;47.10;33.10;;;9.40;99.90;;;;;;5073222;28;20495;-73
2021/11/14 07:02:11;;;;;;;49.73;34.07;;;9.40;99.90;;;;;;5074748;28;20497;-72
2021/11/14 07:04:38;;;;;;;44.63;32.43;;;9.50;99.90;;;;;;5078921;28;20465;-71
2021/11/14 07:07:06;;;;;;;54.77;33.57;;;9.50;99.90;;;;;;5077540;28;20475;-70
2021/11/14 07:09:33;;;;;;;51.33;33.77;;;9.50;99.90;;;;;;5082886;28;20484;-73
2021/11/14 07:12:00;;;;;;;52.87;32.30;;;9.50;99.90;;;;;;5083546;28;20821;-73
2021/11/14 07:14:30;;;;;;;50.63;35.17;;;9.50;99.90;;;;;;5082086;28;20455;-74
2021/11/14 07:16:58;;;;;;;55.33;32.37;;;9.50;99.90;;;;;;5077890;28;20457;-70
2021/11/14 07:19:25;;;;;;;51.30;35.00;;;9.60;99.90;;;;;;5081791;28;20465;-71
2021/11/14 07:21:53;;;;;;;49.80;32.73;;;9.60;99.90;;;;;;5075607;28;20459;-73
2021/11/14 07:24:20;;;;;;;49.13;34.30;;;9.70;99.90;;;;;;5072952;28;20470;-74
2021/11/14 07:26:47;;;;;;;45.23;32.97;;;9.70;99.90;;;;;;5085495;28;20478;-71
2021/11/14 07:29:14;;;;;;;47.10;33.33;;;9.70;99.90;;;;;;5075024;28;20914;-73
2021/11/14 07:31:42;;;;;;;46.70;33.40;;;9.60;99.90;;;;;;5076892;28;20497;-73
2021/11/14 07:34:10;;;;;;;51.57;31.20;;;9.60;99.90;;;;;;5073988;28;20463;-71
2021/11/14 07:36:37;;;;;;;49.37;32.47;;;9.60;99.90;;;;;;5073196;28;20980;-74
2021/11/14 07:39:04;;;;;;;45.70;30.63;;;9.70;99.90;;;;;;5087851;28;20907;-71
2021/11/14 07:41:31;;;;;;;38.30;30.20;;;9.80;99.90;;;;;;5080739;28;20479;-74
2021/11/14 07:43:59;;;;;;;38.20;28.03;;;9.80;99.90;;;;;;5078561;28;20458;-74
2021/11/14 07:46:27;;;;;;;31.00;27.70;;;9.70;99.90;;;;;;5072216;28;20463;-75
2021/11/14 07:48:57;;;;;;;37.23;27.27;;;9.70;99.90;;;;;;5074778;28;20871;-71
2021/11/14 07:51:23;;;;;;;27.60;24.70;;;9.70;99.90;;;;;;5072883;28;20462;-70
2021/11/14 07:53:50;;;;;;;34.07;26.80;;;9.70;99.90;;;;;;5082344;28;20484;-72
2021/11/14 07:56:17;;;;;;;26.90;24.17;;;9.70;99.90;;;;;;5079000;28;20454;-69
2021/11/14 07:58:44;;;;;;;27.33;24.57;;;9.60;99.90;;;;;;5075856;28;20458;-69
2021/11/14 08:01:11;;;;;;;26.40;23.90;;;9.70;99.90;;;;;;5075937;28;20458;-69
2021/11/14 08:03:39;;;;;;;26.27;23.70;;;9.70;99.90;;;;;;5084601;28;20468;-68
2021/11/14 08:06:07;;;;;;;26.17;23.27;;;9.80;99.90;;;;;;5076962;28;20953;-70
2021/11/14 08:08:34;;;;;;;25.97;23.77;;;9.80;99.90;;;;;;5075013;28;20520;-70
2021/11/14 08:11:02;;;;;;;26.97;24.03;;;9.80;99.90;;;;;;5078988;28;20487;-69
2021/11/14 08:13:29;;;;;;;27.90;25.00;;;9.90;99.90;;;;;;5077354;28;20494;-70
2021/11/14 08:15:56;;;;;;;26.03;23.80;;;10.00;99.90;;;;;;5074460;28;20953;-70
2021/11/14 08:18:23;;;;;;;24.40;22.27;;;10.00;99.90;;;;;;5079607;28;20454;-71
2021/11/14 08:20:50;;;;;;;24.90;22.77;;;10.00;99.90;;;;;;5076309;28;20952;-70
2021/11/14 08:23:20;;;;;;;25.67;23.30;;;10.00;99.90;;;;;;5077918;28;20461;-70
2021/11/14 08:25:49;;;;;;;24.37;22.13;;;9.90;99.90;;;;;;5074514;28;20522;-73
2021/11/14 08:28:16;;;;;;;24.80;22.70;;;10.00;99.90;;;;;;5073840;28;20487;-70
2021/11/14 08:30:44;;;;;;;24.50;22.50;;;9.90;99.90;;;;;;5076133;28;20832;-70
2021/11/14 08:33:12;;;;;;;24.73;22.63;;;9.90;99.90;;;;;;5071603;28;20984;-73
2021/11/14 08:35:40;;;;;;;25.33;23.17;;;10.00;99.90;;;;;;5079190;28;20466;-72
2021/11/14 08:38:07;;;;;;;23.77;21.70;;;10.10;99.90;;;;;;5074461;28;20470;-72
2021/11/14 08:40:38;;;;;;;22.40;20.60;;;10.10;99.90;;;;;;5073261;28;20455;-71
2021/11/14 08:43:09;;;;;;;25.03;22.93;;;10.00;99.90;;;;;;5071840;28;20455;-70
2021/11/14 08:45:37;;;;;;;22.90;21.13;;;10.00;99.90;;;;;;5076499;28;20470;-70
2021/11/14 08:48:04;;;;;;;22.27;20.57;;;9.90;99.90;;;;;;5075951;28;20464;-70
2021/11/14 08:50:33;;;;;;;22.93;20.93;;;9.90;99.90;;;;;;5074749;28;20498;-69
2021/11/14 08:53:00;;;;;;;24.10;21.93;;;9.90;99.90;;;;;;5072402;28;20983;-70
2021/11/14 08:55:28;;;;;;;24.40;22.13;;;10.00;99.90;;;;;;5078698;28;20466;-70
2021/11/14 08:57:58;;;;;;;23.03;21.23;;;10.00;99.90;;;;;;5074067;28;20565;-70
2021/11/14 09:00:28;;;;;;;24.50;22.23;;;10.00;99.90;;;;;;5075967;28;20455;-71
2021/11/14 09:02:58;;;;;;;23.37;21.53;;;10.00;99.90;;;;;;5080387;28;20461;-72
2021/11/14 09:05:26;;;;;;;23.63;21.60;;;10.20;99.90;;;;;;5078064;28;20461;-70
2021/11/14 09:07:57;;;;;;;22.10;20.40;;;10.20;99.90;;;;;;5075921;28;20504;-70
2021/11/14 09:10:25;;;;;;;24.13;22.17;;;10.30;99.90;;;;;;5071543;28;20557;-70
2021/11/14 09:12:53;;;;;;;21.43;19.83;;;10.40;99.90;;;;;;5081151;28;20479;-71
2021/11/14 09:15:23;;;;;;;23.57;21.67;;;10.40;99.90;;;;;;5079634;28;20451;-73
2021/11/14 09:17:50;;;;;;;22.40;20.50;;;10.30;99.90;;;;;;5088526;28;20473;-70
2021/11/14 09:20:17;;;;;;;21.27;19.57;;;10.20;99.90;;;;;;5076843;28;20472;-70
2021/11/14 09:22:45;;;;;;;22.77;20.87;;;10.40;99.90;;;;;;5082773;28;20470;-70
2021/11/14 09:25:14;;;;;;;21.57;20.03;;;10.40;99.90;;;;;;5080603;28;20542;-71
2021/11/14 09:27:41;;;;;;;20.73;19.30;;;10.60;99.90;;;;;;5085020;28;20999;-73
2021/11/14 09:30:09;;;;;;;21.50;19.80;;;10.60;99.90;;;;;;5080113;28;20493;-71
2021/11/14 09:32:39;;;;;;;21.27;19.47;;;10.60;99.90;;;;;;5073720;28;20541;-73
2021/11/14 09:35:07;;;;;;;23.20;21.50;;;10.70;99.90;;;;;;5081614;28;20462;-70
2021/11/14 09:37:35;;;;;;;19.60;18.20;;;10.60;99.90;;;;;;5075703;28;20582;-72
2021/11/14 09:40:03;;;;;;;21.10;19.60;;;10.60;99.90;;;;;;5081035;28;20450;-71
2021/11/14 09:42:30;;;;;;;21.30;19.70;;;10.50;99.90;;;;;;5076371;28;20462;-70
2021/11/14 09:44:57;;;;;;;20.40;18.90;;;10.40;99.90;;;;;;5074231;28;20469;-75
2021/11/14 09:47:24;;;;;;;19.27;17.87;;;10.50;99.90;;;;;;5083446;28;20461;-70
2021/11/14 09:49:57;;;;;;;18.60;17.40;;;10.50;99.90;;;;;;5081853;28;20477;-71
2021/11/14 09:52:25;;;;;;;17.70;16.70;;;10.60;99.90;;;;;;5057439;28;21017;-70
2021/11/14 09:54:52;;;;;;;17.47;16.30;;;10.70;99.90;;;;;;5076862;28;20469;-70
2021/11/14 09:57:19;;;;;;;19.27;17.80;;;10.60;99.90;;;;;;5072405;28;20564;-70
2021/11/14 09:59:47;;;;;;;18.23;17.10;;;10.50;99.90;;;;;;5078785;28;20463;-70
2021/11/14 10:02:18;;;;;;;20.77;19.33;;;10.50;99.90;;;;;;5078711;28;20466;-70
2021/11/14 10:04:45;;;;;;;20.07;18.57;;;10.40;99.90;;;;;;5073548;28;20454;-70
2021/11/14 10:07:17;;;;;;;21.93;20.43;;;10.50;99.90;;;;;;5075321;28;20506;-70
2021/11/14 10:09:47;;;;;;;20.50;19.00;;;10.50;99.90;;;;;;5075144;28;20486;-70
2021/11/14 10:12:17;;;;;;;20.20;18.80;;;10.40;99.90;;;;;;5072339;28;20466;-70
2021/11/14 10:14:46;;;;;;;19.87;18.50;;;10.30;99.90;;;;;;5079317;28;20972;-70
2021/11/14 10:17:22;;;;;;;20.30;18.90;;;10.50;99.90;;;;;;5076565;28;20638;-71
2021/11/14 10:20:05;;;;;;;20.83;19.43;;;10.50;99.90;;;;;;5076291;28;20876;-70
2021/11/14 10:22:34;;;;;;;19.17;17.87;;;10.50;99.90;;;;;;5070651;28;20458;-73
2021/11/14 10:25:01;;;;;;;19.60;18.30;;;10.50;99.90;;;;;;5075802;28;20458;-69
2021/11/14 10:27:29;;;;;;;18.83;17.43;;;10.60;99.90;;;;;;5076719;28;20565;-70
2021/11/14 10:29:57;;;;;;;20.87;19.43;;;10.90;99.90;;;;;;5079287;28;20550;-69
2021/11/14 10:32:26;;;;;;;19.20;18.00;;;11.00;99.90;;;;;;5076822;28;20465;-73
2021/11/14 10:34:57;;;;;;;19.50;18.20;;;11.10;99.90;;;;;;5074678;28;20578;-74
2021/11/14 10:37:24;;;;;;;18.77;17.47;;;11.20;99.90;;;;;;5068221;28;20465;-73
2021/11/14 10:39:54;;;;;;;19.70;18.40;;;11.30;99.90;;;;;;5079328;28;20468;-70
2021/11/14 10:42:21;;;;;;;18.33;17.10;;;11.20;99.90;;;;;;5075883;28;20468;-70
2021/11/14 10:44:50;;;;;;;18.77;17.57;;;11.10;99.90;;;;;;5077860;28;20457;-73
2021/11/14 10:47:22;;;;;;;19.50;17.53;;;11.10;99.90;;;;;;5082736;28;20886;-70
2021/11/14 10:49:57;;;;;;;19.57;18.20;;;11.20;99.90;;;;;;5071157;28;20462;-70
2021/11/14 10:52:25;;;;;;;26.27;23.87;;;11.20;99.90;;;;;;5073880;28;20454;-70
2021/11/14 10:54:56;;;;;;;23.90;21.83;;;11.20;99.90;;;;;;5072325;28;20451;-70
2021/11/14 10:57:25;;;;;;;29.17;26.17;;;11.00;99.90;;;;;;5081417;28;20465;-71
2021/11/14 10:59:54;;;;;;;31.70;28.60;;;11.00;99.90;;;;;;5066452;28;21016;-70
2021/11/14 11:02:23;;;;;;;33.37;29.87;;;11.00;99.90;;;;;;5077055;28;20470;-70
2021/11/14 11:04:52;;;;;;;33.00;29.67;;;10.80;99.90;;;;;;5070723;28;20573;-71
2021/11/14 11:07:21;;;;;;;33.83;30.40;;;10.80;99.90;;;;;;5069843;28;20477;-69
2021/11/14 11:09:56;;;;;;;35.40;30.77;;;10.80;99.90;;;;;;5078991;28;20964;-69
2021/11/14 11:12:25;;;;;;;43.00;35.60;;;10.60;99.90;;;;;;5078823;28;20948;-69
2021/11/14 11:14:59;;;;;;;35.40;31.73;;;10.80;99.90;;;;;;5075399;28;20466;-69
2021/11/14 11:17:28;;;;;;;40.57;35.07;;;11.00;99.90;;;;;;5074868;28;20466;-70
2021/11/14 11:19:56;;;;;;;37.47;32.50;;;10.90;99.90;;;;;;5072323;28;20458;-70
2021/11/14 11:22:25;;;;;;;37.73;33.67;;;10.80;99.90;;;;;;5067336;28;20462;-69
2021/11/14 11:24:54;;;;;;;34.67;31.07;;;10.70;99.90;;;;;;5067263;28;20464;-73
2021/11/14 11:27:23;;;;;;;37.93;33.07;;;10.60;99.90;;;;;;5073513;28;20840;-69
2021/11/14 11:29:50;;;;;;;32.70;29.20;;;10.70;99.90;;;;;;5072984;28;20470;-71
2021/11/14 11:32:18;;;;;;;33.33;29.73;;;10.80;99.90;;;;;;5078297;28;20469;-69
2021/11/14 11:34:46;;;;;;;33.97;29.30;;;10.90;99.90;;;;;;5076090;28;20792;-73
2021/11/14 11:37:14;;;;;;;31.77;28.40;;;10.80;99.90;;;;;;5072645;28;20874;-69
2021/11/14 11:39:42;;;;;;;31.60;27.50;;;10.60;99.90;;;;;;5067477;28;20463;-71
2021/11/14 11:42:09;;;;;;;39.90;29.53;;;10.60;99.90;;;;;;5076199;28;20472;-70
2021/11/14 11:44:38;;;;;;;30.77;27.10;;;10.60;99.90;;;;;;5073881;28;20454;-69
2021/11/14 11:47:09;;;;;;;32.90;29.40;;;10.40;99.90;;;;;;5073296;28;20849;-69
2021/11/14 11:49:37;;;;;;;35.50;29.60;;;10.30;99.90;;;;;;5071536;28;20466;-69
2021/11/14 11:52:09;;;;;;;41.97;32.33;;;10.40;99.90;;;;;;5072797;28;20493;-72
2021/11/14 11:54:38;;;;;;;32.97;28.47;;;10.50;99.90;;;;;;5066841;28;20738;-73
2021/11/14 11:57:09;;;;;;;35.77;29.30;;;10.50;99.90;;;;;;5066803;28;20466;-73
2021/11/14 11:59:40;;;;;;;36.03;29.20;;;10.40;99.90;;;;;;5069902;28;20995;-73
2021/11/14 12:02:11;;;;;;;39.63;29.67;;;10.40;99.90;;;;;;5078872;28;20462;-70
2021/11/14 12:04:39;;;;;;;33.23;27.80;;;10.50;99.90;;;;;;5071456;28;21117;-70
2021/11/14 12:07:08;;;;;;;34.30;30.60;;;10.60;99.90;;;;;;5074773;28;20472;-69
2021/11/14 12:09:41;;;;;;;33.83;28.93;;;10.80;99.90;;;;;;5071256;28;21030;-69
2021/11/14 12:12:20;;;;;;;34.37;30.03;;;10.90;99.90;;;;;;5068147;28;20503;-69
2021/11/14 12:15:04;;;;;;;31.03;27.80;;;10.90;99.90;;;;;;5065688;28;20493;-72
2021/11/14 12:17:31;;;;;;;30.10;27.00;;;11.00;99.90;;;;;;5071896;28;20752;-69
2021/11/14 12:20:09;;;;;;;31.37;27.97;;;11.10;99.90;;;;;;5069935;28;20466;-72
2021/11/14 12:22:43;;;;;;;32.97;28.33;;;11.30;99.90;;;;;;5071746;28;20693;-72
2021/11/14 12:25:20;;;;;;;31.53;28.20;;;11.30;99.90;;;;;;5074067;28;20488;-69
2021/11/14 12:27:58;;;;;;;30.60;25.63;;;11.20;99.90;;;;;;5078101;28;20482;-73
2021/11/14 12:30:27;;;;;;;31.07;27.73;;;11.10;99.90;;;;;;5077376;28;20998;-69
2021/11/14 12:32:55;;;;;;;27.73;24.80;;;11.10;99.90;;;;;;5075067;28;20558;-73
2021/11/14 12:35:26;;;;;;;30.20;27.20;;;11.30;99.90;;;;;;5068337;28;20467;-69